createdAt,value
2022-11-30T00:01:16.893Z,2.70
2022-11-30T00:03:43.669Z,2.60
2022-11-30T00:06:14.055Z,2.40
2022-11-30T00:08:41.084Z,2.63
2022-11-30T00:11:09.949Z,2.78
2022-11-30T00:13:36.675Z,2.20
2022-11-30T00:16:04.341Z,2.28
2022-11-30T00:18:31.680Z,2.80
2022-11-30T00:21:02.461Z,2.55
2022-11-30T00:23:33.438Z,2.60
2022-11-30T00:26:02.188Z,2.70
2022-11-30T00:28:29.885Z,2.50
2022-11-30T00:30:58.776Z,2.50
2022-11-30T00:33:25.520Z,3.10
2022-11-30T00:35:57.023Z,2.92
2022-11-30T00:38:24.077Z,2.97
2022-11-30T00:40:51.658Z,2.75
2022-11-30T00:43:18.384Z,2.42
2022-11-30T00:45:45.037Z,2.30
2022-11-30T00:48:11.918Z,2.42
2022-11-30T00:50:38.986Z,2.70
2022-11-30T00:53:05.644Z,2.72
2022-11-30T00:55:33.968Z,2.80
2022-11-30T00:58:01.003Z,2.15
2022-11-30T01:00:28.845Z,2.80
2022-11-30T01:02:57.030Z,2.20
2022-11-30T01:05:25.329Z,2.05
2022-11-30T01:07:52.461Z,2.50
2022-11-30T01:10:19.139Z,2.70
2022-11-30T01:12:45.817Z,2.53
2022-11-30T01:15:12.462Z,3.07
2022-11-30T01:17:39.386Z,2.33
2022-11-30T01:20:10.937Z,2.40
2022-11-30T01:22:37.685Z,2.38
2022-11-30T01:25:04.667Z,3.55
2022-11-30T01:27:31.437Z,3.23
2022-11-30T01:29:58.141Z,3.95
2022-11-30T01:32:24.799Z,2.50
2022-11-30T01:34:51.811Z,3.88
2022-11-30T01:37:18.501Z,3.08
2022-11-30T01:39:45.242Z,3.40
2022-11-30T01:42:18.284Z,3.35
2022-11-30T01:44:49.986Z,2.58
2022-11-30T01:47:18.229Z,2.28
2022-11-30T01:49:49.908Z,2.28
2022-11-30T01:52:22.212Z,2.57
2022-11-30T01:54:57.024Z,1.95
2022-11-30T01:57:40.897Z,2.35
2022-11-30T02:00:10.889Z,2.60
2022-11-30T02:02:54.003Z,2.17
2022-11-30T02:05:21.925Z,2.20
2022-11-30T02:07:48.834Z,2.35
2022-11-30T02:10:22.045Z,1.83
2022-11-30T02:13:10.043Z,2.30
2022-11-30T02:15:44.356Z,2.50
2022-11-30T02:18:23.010Z,2.00
2022-11-30T02:21:02.206Z,2.17
2022-11-30T02:23:58.389Z,1.90
2022-11-30T02:26:39.884Z,2.28
2022-11-30T02:29:12.648Z,2.72
2022-11-30T02:31:51.035Z,2.37
2022-11-30T02:34:21.049Z,1.70
2022-11-30T02:36:48.393Z,2.10
2022-11-30T02:39:15.049Z,1.70
2022-11-30T02:41:41.808Z,2.35
2022-11-30T02:44:11.537Z,2.23
2022-11-30T02:46:40.903Z,2.55
2022-11-30T02:49:25.055Z,2.17
2022-11-30T02:51:53.824Z,2.33
2022-11-30T02:54:20.488Z,2.03
2022-11-30T02:56:47.224Z,2.17
2022-11-30T02:59:13.945Z,2.20
2022-11-30T03:01:40.800Z,2.15
2022-11-30T03:04:07.469Z,2.13
2022-11-30T03:06:34.316Z,1.88
2022-11-30T03:09:01.086Z,2.20
2022-11-30T03:11:27.764Z,2.15
2022-11-30T03:13:55.247Z,2.47
2022-11-30T03:16:21.982Z,2.13
2022-11-30T03:18:48.729Z,2.65
2022-11-30T03:21:15.445Z,2.30
2022-11-30T03:23:42.266Z,2.28
2022-11-30T03:26:09.325Z,2.15
2022-11-30T03:28:37.086Z,2.45
2022-11-30T03:31:04.493Z,2.55
2022-11-30T03:33:31.188Z,2.13
2022-11-30T03:36:02.545Z,2.30
2022-11-30T03:38:29.601Z,2.13
2022-11-30T03:41:07.306Z,2.20
2022-11-30T03:43:34.277Z,2.20
2022-11-30T03:46:01.067Z,2.27
2022-11-30T03:48:27.991Z,2.05
2022-11-30T03:50:54.658Z,1.92
2022-11-30T03:53:22.781Z,2.00
2022-11-30T03:55:55.176Z,2.35
2022-11-30T03:58:23.150Z,2.30
2022-11-30T04:00:50.717Z,2.22
2022-11-30T04:03:17.409Z,2.42
2022-11-30T04:05:44.178Z,1.90
2022-11-30T04:08:10.889Z,2.55
2022-11-30T04:10:37.540Z,2.07
2022-11-30T04:13:04.267Z,2.28
2022-11-30T04:15:30.924Z,2.50
2022-11-30T04:17:57.657Z,1.98
2022-11-30T04:20:24.469Z,2.10
2022-11-30T04:22:51.378Z,1.93
2022-11-30T04:25:18.049Z,1.73
2022-11-30T04:27:48.135Z,2.00
2022-11-30T04:30:15.629Z,1.83
2022-11-30T04:32:42.377Z,2.15
2022-11-30T04:35:10.492Z,2.03
2022-11-30T04:37:37.470Z,2.15
2022-11-30T04:40:04.993Z,1.90
2022-11-30T04:42:31.761Z,2.20
2022-11-30T04:44:58.556Z,1.98
2022-11-30T04:47:25.419Z,2.40
2022-11-30T04:49:52.149Z,2.53
2022-11-30T04:52:18.789Z,2.35
2022-11-30T04:54:45.901Z,2.00
2022-11-30T04:57:12.686Z,2.25
2022-11-30T04:59:39.429Z,2.03
2022-11-30T05:02:06.112Z,2.17
2022-11-30T05:04:33.078Z,2.17
2022-11-30T05:07:00.018Z,2.20
2022-11-30T05:09:27.050Z,1.90
2022-11-30T05:11:53.661Z,1.80
2022-11-30T05:14:20.321Z,2.08
2022-11-30T05:16:48.149Z,2.13
2022-11-30T05:19:15.187Z,2.50
2022-11-30T05:21:45.637Z,2.80
2022-11-30T05:24:12.708Z,2.30
2022-11-30T05:26:39.385Z,1.90
2022-11-30T05:29:06.635Z,1.92
2022-11-30T05:31:33.568Z,2.10
2022-11-30T05:34:00.321Z,2.28
2022-11-30T05:36:26.965Z,2.67
2022-11-30T05:38:53.653Z,2.40
2022-11-30T05:41:20.440Z,2.22
2022-11-30T05:43:47.118Z,2.20
2022-11-30T05:46:13.840Z,2.25
2022-11-30T05:48:40.662Z,2.23
2022-11-30T05:51:11.693Z,2.30
2022-11-30T05:53:38.904Z,2.30
2022-11-30T05:56:11.979Z,2.53
2022-11-30T05:58:39.590Z,2.45
2022-11-30T06:01:06.580Z,2.30
2022-11-30T06:03:35.446Z,2.70
2022-11-30T06:06:02.487Z,2.08
2022-11-30T06:08:29.171Z,2.90
2022-11-30T06:11:00.921Z,3.20
2022-11-30T06:13:29.076Z,2.87
2022-11-30T06:15:59.992Z,2.78
2022-11-30T06:18:26.777Z,2.80
2022-11-30T06:20:53.421Z,2.67
2022-11-30T06:23:20.064Z,3.42
2022-11-30T06:25:46.679Z,2.90
2022-11-30T06:28:13.738Z,2.55
2022-11-30T06:30:40.317Z,2.70
2022-11-30T06:33:07.049Z,2.65
2022-11-30T06:35:33.812Z,2.85
2022-11-30T06:38:00.609Z,2.83
2022-11-30T06:40:28.249Z,3.20
2022-11-30T06:42:55.259Z,3.05
2022-11-30T06:45:22.064Z,3.03
2022-11-30T06:47:48.780Z,2.90
2022-11-30T06:50:15.539Z,2.80
2022-11-30T06:52:42.249Z,3.25
2022-11-30T06:55:09.089Z,3.60
2022-11-30T06:57:35.790Z,3.17
2022-11-30T07:00:03.137Z,3.60
2022-11-30T07:02:30.136Z,4.10
2022-11-30T07:04:56.757Z,4.60
2022-11-30T07:07:23.781Z,3.60
2022-11-30T07:09:50.996Z,3.63
2022-11-30T07:12:18.406Z,3.65
2022-11-30T07:14:45.395Z,3.60
2022-11-30T07:17:12.456Z,3.33
2022-11-30T07:19:39.153Z,3.55
2022-11-30T07:22:05.809Z,3.92
2022-11-30T07:24:51.103Z,3.53
2022-11-30T07:27:17.795Z,3.43
2022-11-30T07:29:44.444Z,2.60
2022-11-30T07:32:11.467Z,2.90
2022-11-30T07:34:38.230Z,3.13
2022-11-30T07:37:04.901Z,3.13
2022-11-30T07:39:31.549Z,2.70
2022-11-30T07:41:58.228Z,3.10
2022-11-30T07:44:26.217Z,3.47
2022-11-30T07:46:52.972Z,2.90
2022-11-30T07:49:20.285Z,3.58
2022-11-30T07:51:46.986Z,3.40
2022-11-30T07:54:14.246Z,3.72
2022-11-30T07:56:40.955Z,3.10
2022-11-30T07:59:07.696Z,2.88
2022-11-30T08:01:34.683Z,2.88
2022-11-30T08:04:01.680Z,3.10
2022-11-30T08:06:30.555Z,3.40
2022-11-30T08:08:59.444Z,3.15
2022-11-30T08:11:28.821Z,3.00
2022-11-30T08:13:55.649Z,3.40
2022-11-30T08:16:27.859Z,3.27
2022-11-30T08:18:58.445Z,3.30
2022-11-30T08:21:25.594Z,3.60
2022-11-30T08:23:55.954Z,3.00
2022-11-30T08:26:30.201Z,3.10
2022-11-30T08:28:58.705Z,2.40
2022-11-30T08:31:29.297Z,2.50
2022-11-30T08:33:58.116Z,1.80
2022-11-30T08:36:26.558Z,2.38
2022-11-30T08:38:53.799Z,2.53
2022-11-30T08:41:22.361Z,2.10
2022-11-30T08:43:50.219Z,1.73
2022-11-30T08:46:49.785Z,1.98
2022-11-30T08:49:21.467Z,1.80
2022-11-30T08:54:39.537Z,2.20
2022-11-30T08:57:06.226Z,2.85
2022-11-30T08:59:32.864Z,2.58
2022-11-30T09:01:59.581Z,2.50
2022-11-30T09:04:26.326Z,2.30
2022-11-30T09:06:52.990Z,3.07
2022-11-30T09:09:19.783Z,4.15
2022-11-30T09:11:46.440Z,3.55
2022-11-30T09:14:13.065Z,4.00
2022-11-30T09:16:39.810Z,3.28
2022-11-30T09:19:06.549Z,3.20
2022-11-30T09:21:33.297Z,2.58
2022-11-30T09:24:00.055Z,2.60
2022-11-30T09:26:26.954Z,2.45
2022-11-30T09:28:54.580Z,2.15
2022-11-30T09:31:26.070Z,2.37
2022-11-30T09:33:55.111Z,3.00
2022-11-30T09:36:23.798Z,2.63
2022-11-30T09:38:50.532Z,2.72
2022-11-30T09:41:36.829Z,2.63
2022-11-30T09:44:16.139Z,3.53
2022-11-30T09:46:55.233Z,2.38
2022-11-30T09:49:23.843Z,3.88
2022-11-30T09:51:54.817Z,2.75
2022-11-30T09:54:42.970Z,2.00
2022-11-30T09:57:24.922Z,2.37
2022-11-30T10:00:00.046Z,4.78
2022-11-30T10:02:38.002Z,6.63
2022-11-30T10:05:13.825Z,5.20
2022-11-30T10:08:21.078Z,4.00
2022-11-30T10:11:18.524Z,1.87
2022-11-30T10:14:06.513Z,6.47
2022-11-30T10:16:50.201Z,2.85
2022-11-30T10:19:35.570Z,2.40
2022-11-30T10:22:18.380Z,1.75
2022-11-30T10:24:45.465Z,2.20
2022-11-30T10:27:18.572Z,2.10
2022-11-30T10:29:45.368Z,2.50
2022-11-30T10:32:17.732Z,1.98
2022-11-30T10:34:47.655Z,1.70
2022-11-30T10:37:19.581Z,2.13
2022-11-30T10:40:01.215Z,2.00
2022-11-30T10:42:38.914Z,1.90
2022-11-30T10:45:12.229Z,1.83
2022-11-30T10:48:00.215Z,1.75
2022-11-30T10:50:30.024Z,1.50
2022-11-30T10:53:00.063Z,2.80
2022-11-30T10:55:35.818Z,1.80
2022-11-30T10:58:09.962Z,2.13
2022-11-30T11:00:36.609Z,3.20
2022-11-30T11:03:03.281Z,2.00
2022-11-30T11:05:31.786Z,2.10
2022-11-30T11:08:07.144Z,1.80
2022-11-30T11:10:47.062Z,2.13
2022-11-30T11:13:17.997Z,2.25
2022-11-30T11:16:00.065Z,2.07
2022-11-30T11:18:29.315Z,1.90
2022-11-30T11:21:16.452Z,2.00
2022-11-30T11:23:44.700Z,2.40
2022-11-30T11:26:23.465Z,2.10
2022-11-30T11:28:53.036Z,2.73
2022-11-30T11:31:36.083Z,2.30
2022-11-30T11:34:05.493Z,2.60
2022-11-30T11:36:33.904Z,2.85
2022-11-30T11:39:01.196Z,3.08
2022-11-30T11:41:33.789Z,3.20
2022-11-30T11:44:21.334Z,2.97
2022-11-30T11:46:58.013Z,2.53
2022-11-30T11:49:27.201Z,2.70
2022-11-30T11:52:08.881Z,2.92
2022-11-30T11:54:53.272Z,3.90
2022-11-30T11:57:23.473Z,2.90
2022-11-30T12:00:05.514Z,2.42
2022-11-30T12:02:40.579Z,1.85
2022-11-30T12:05:15.545Z,1.83
2022-11-30T12:08:17.115Z,1.90
2022-11-30T12:10:53.305Z,1.85
2022-11-30T12:13:23.182Z,3.00
2022-11-30T12:16:11.729Z,3.10
2022-11-30T12:18:50.399Z,2.70
2022-11-30T12:21:43.313Z,2.73
2022-11-30T12:24:36.314Z,2.50
2022-11-30T12:27:17.147Z,2.50
2022-11-30T12:29:55.233Z,2.70
2022-11-30T12:32:46.073Z,2.75
2022-11-30T12:35:19.858Z,3.30
2022-11-30T12:38:07.554Z,4.00
2022-11-30T12:41:19.206Z,3.15
2022-11-30T12:44:09.145Z,3.50
2022-11-30T12:46:58.029Z,2.75
2022-11-30T12:49:43.192Z,2.70
2022-11-30T12:52:37.757Z,2.58
2022-11-30T12:55:24.809Z,3.28
2022-11-30T12:58:36.249Z,2.70
2022-11-30T13:01:08.915Z,2.30
2022-11-30T13:03:45.338Z,2.13
2022-11-30T13:06:14.470Z,2.40
2022-11-30T13:09:12.018Z,2.42
2022-11-30T13:11:47.121Z,2.20
2022-11-30T13:14:18.677Z,2.20
2022-11-30T13:16:47.084Z,1.87
2022-11-30T13:19:38.580Z,2.00
2022-11-30T13:22:11.842Z,2.17
2022-11-30T13:24:47.770Z,2.40
2022-11-30T13:27:41.262Z,2.20
2022-11-30T13:30:27.064Z,2.13
2022-11-30T13:32:58.480Z,2.45
2022-11-30T13:35:28.281Z,2.08
2022-11-30T13:41:04.500Z,3.78
2022-11-30T13:43:36.967Z,3.30
2022-11-30T13:46:15.361Z,3.45
2022-11-30T13:48:44.413Z,3.30
2022-11-30T13:51:11.847Z,5.35
2022-11-30T13:53:39.881Z,4.47
2022-11-30T13:56:18.732Z,3.60
2022-11-30T13:59:19.283Z,4.15
2022-11-30T14:01:46.047Z,3.90
2022-11-30T14:04:18.721Z,3.30
2022-11-30T14:06:51.732Z,3.83
2022-11-30T14:09:36.948Z,3.20
2022-11-30T14:12:31.694Z,4.38
2022-11-30T14:14:59.726Z,4.30
2022-11-30T14:17:29.023Z,3.35
2022-11-30T14:20:00.820Z,3.63
2022-11-30T14:22:29.424Z,3.17
2022-11-30T14:24:56.527Z,3.45
2022-11-30T14:27:25.647Z,5.80
2022-11-30T14:29:57.203Z,5.75
2022-11-30T14:32:35.127Z,5.43
2022-11-30T14:35:17.845Z,4.60
2022-11-30T14:37:56.198Z,8.25
2022-11-30T14:40:25.344Z,4.47
2022-11-30T14:43:00.610Z,5.25
2022-11-30T14:45:33.154Z,5.00
2022-11-30T14:48:14.642Z,4.43
2022-11-30T14:50:48.467Z,4.22
2022-11-30T14:53:40.111Z,3.78
2022-11-30T14:56:22.126Z,5.30
2022-11-30T14:58:56.329Z,6.80
2022-11-30T15:01:30.134Z,5.40
2022-11-30T15:04:03.882Z,3.83
2022-11-30T15:06:33.582Z,3.60
2022-11-30T15:09:01.811Z,4.82
2022-11-30T15:11:29.205Z,3.92
2022-11-30T15:14:07.146Z,2.47
2022-11-30T15:16:33.876Z,2.83
2022-11-30T15:19:36.033Z,2.30
2022-11-30T15:22:02.787Z,2.80
2022-11-30T15:24:29.913Z,3.00
2022-11-30T15:27:10.039Z,2.80
2022-11-30T15:29:58.330Z,2.50
2022-11-30T15:32:25.876Z,3.03
2022-11-30T15:34:57.089Z,2.38
2022-11-30T15:37:32.379Z,2.90
2022-11-30T15:40:02.042Z,2.50
2022-11-30T15:42:40.157Z,2.70
2022-11-30T15:45:17.609Z,4.15
2022-11-30T15:47:44.376Z,3.30
2022-11-30T15:50:41.100Z,2.83
2022-11-30T15:53:22.967Z,2.60
2022-11-30T15:55:52.142Z,3.08
2022-11-30T15:58:29.427Z,2.67
2022-11-30T16:01:05.368Z,3.13
2022-11-30T16:03:34.328Z,3.25
2022-11-30T16:06:04.995Z,3.90
2022-11-30T16:08:32.858Z,4.05
2022-11-30T16:11:03.221Z,4.35
2022-11-30T16:13:34.611Z,4.30
2022-11-30T16:16:02.293Z,3.70
2022-11-30T16:18:29.034Z,4.20
2022-11-30T16:21:05.888Z,4.30
2022-11-30T16:23:43.599Z,4.28
2022-11-30T16:29:08.174Z,5.35
2022-11-30T16:31:42.533Z,5.37
2022-11-30T16:34:14.530Z,5.60
2022-11-30T16:36:47.701Z,5.10
2022-11-30T16:39:14.466Z,4.63
2022-11-30T16:41:46.985Z,4.72
2022-11-30T16:44:18.899Z,5.17
2022-11-30T16:46:46.315Z,5.03
2022-11-30T16:49:23.531Z,4.32
2022-11-30T16:51:50.371Z,4.10
2022-11-30T16:54:19.570Z,3.95
2022-11-30T16:56:46.936Z,4.40
2022-11-30T16:59:17.001Z,4.68
2022-11-30T17:01:50.830Z,4.45
2022-11-30T17:04:24.169Z,4.47
2022-11-30T17:06:58.759Z,5.38
2022-11-30T17:09:29.831Z,4.90
2022-11-30T17:11:56.484Z,6.53
2022-11-30T17:14:23.129Z,5.50
2022-11-30T17:16:49.882Z,4.60
2022-11-30T17:19:16.772Z,5.40
2022-11-30T17:21:44.878Z,6.70
2022-11-30T17:24:12.211Z,7.00
2022-11-30T17:26:39.034Z,5.70
2022-11-30T17:29:06.333Z,5.13
2022-11-30T17:31:33.456Z,6.50
2022-11-30T17:34:00.555Z,5.47
2022-11-30T17:36:29.233Z,5.72
2022-11-30T17:38:56.190Z,6.07
2022-11-30T17:41:23.595Z,5.70
2022-11-30T17:43:50.329Z,5.25
2022-11-30T17:46:18.433Z,4.60
2022-11-30T17:48:49.939Z,4.82
2022-11-30T17:51:17.160Z,3.80
2022-11-30T17:53:44.435Z,3.58
2022-11-30T17:56:14.083Z,3.15
2022-11-30T17:58:44.158Z,3.13
2022-11-30T18:01:19.449Z,3.35
2022-11-30T18:03:46.890Z,3.70
2022-11-30T18:06:14.426Z,3.80
2022-11-30T18:08:41.891Z,4.03
2022-11-30T18:11:20.508Z,4.40
2022-11-30T18:13:49.975Z,4.80
2022-11-30T18:16:22.829Z,3.00
2022-11-30T18:18:50.366Z,2.83
2022-11-30T18:21:22.841Z,2.80
2022-11-30T18:23:50.783Z,2.58
2022-11-30T18:26:19.969Z,3.35
2022-11-30T18:28:54.118Z,3.03
2022-11-30T18:31:21.923Z,2.95
2022-11-30T18:33:49.077Z,2.95
2022-11-30T18:36:15.952Z,2.77
2022-11-30T18:38:43.989Z,2.80
2022-11-30T18:41:10.810Z,3.35
2022-11-30T18:43:38.257Z,3.47
2022-11-30T18:46:07.350Z,3.28
2022-11-30T18:48:35.052Z,3.30
2022-11-30T18:51:23.128Z,4.95
2022-11-30T18:53:50.105Z,4.75
2022-11-30T18:56:19.470Z,4.20
2022-11-30T18:58:47.560Z,2.40
2022-11-30T19:01:19.902Z,3.53
2022-11-30T19:03:54.732Z,3.53
2022-11-30T19:06:22.392Z,3.28
2022-11-30T19:08:49.084Z,3.47
2022-11-30T19:11:17.080Z,3.50
2022-11-30T19:13:44.586Z,3.38
2022-11-30T19:16:18.021Z,3.95
2022-11-30T19:18:45.100Z,2.83
2022-11-30T19:21:15.020Z,2.60
2022-11-30T19:23:41.758Z,4.70
2022-11-30T19:26:10.280Z,3.38
2022-11-30T19:28:38.947Z,4.90
2022-11-30T19:31:11.668Z,4.20
2022-11-30T19:33:40.498Z,3.70
2022-11-30T19:36:10.478Z,5.80
2022-11-30T19:38:37.329Z,4.10
2022-11-30T19:41:08.464Z,10.63
2022-11-30T19:43:36.270Z,6.68
2022-11-30T19:46:10.606Z,4.53
2022-11-30T19:48:38.157Z,3.50
2022-11-30T19:51:16.291Z,6.00
2022-11-30T19:53:44.672Z,4.68
2022-11-30T19:56:16.537Z,5.03
2022-11-30T19:58:46.739Z,4.45
2022-11-30T20:01:14.560Z,4.80
2022-11-30T20:03:41.379Z,4.57
2022-11-30T20:06:08.139Z,3.63
2022-11-30T20:08:34.945Z,3.40
2022-11-30T20:11:07.129Z,4.13
2022-11-30T20:13:33.939Z,4.40
2022-11-30T20:16:10.063Z,4.17
2022-11-30T20:18:41.256Z,5.38
2022-11-30T20:21:15.190Z,3.30
2022-11-30T20:23:43.137Z,3.47
2022-11-30T20:26:22.788Z,3.53
2022-11-30T20:28:51.518Z,4.47
2022-11-30T20:31:20.803Z,3.97
2022-11-30T20:33:48.290Z,3.83
2022-11-30T20:36:16.045Z,3.75
2022-11-30T20:38:43.568Z,4.55
2022-11-30T20:41:14.883Z,2.50
2022-11-30T20:43:42.707Z,3.72
2022-11-30T20:46:13.228Z,4.45
2022-11-30T20:48:40.121Z,4.53
2022-11-30T20:51:30.593Z,4.30
2022-11-30T20:54:04.035Z,3.53
2022-11-30T20:56:31.476Z,4.53
2022-11-30T20:59:02.105Z,4.28
2022-11-30T21:01:28.903Z,4.38
2022-11-30T21:03:55.662Z,5.78
2022-11-30T21:06:22.649Z,6.53
2022-11-30T21:08:49.378Z,4.07
2022-11-30T21:11:19.367Z,3.80
2022-11-30T21:13:48.864Z,3.35
2022-11-30T21:16:21.155Z,3.08
2022-11-30T21:18:50.973Z,2.80
2022-11-30T21:21:20.995Z,3.30
2022-11-30T21:23:48.245Z,4.07
2022-11-30T21:26:29.936Z,2.90
2022-11-30T21:29:19.884Z,3.30
2022-11-30T21:31:47.959Z,4.63
2022-11-30T21:34:14.970Z,2.65
2022-11-30T21:36:41.886Z,2.10
2022-11-30T21:39:09.737Z,2.03
2022-11-30T21:41:39.096Z,1.88
2022-11-30T21:44:09.903Z,2.70
2022-11-30T21:46:36.708Z,2.60
2022-11-30T21:49:04.020Z,2.53
2022-11-30T21:51:34.140Z,2.70
2022-11-30T21:54:03.198Z,2.70
2022-11-30T21:56:32.729Z,2.30
2022-11-30T21:59:00.056Z,1.70
2022-11-30T22:01:32.759Z,2.15
2022-11-30T22:04:01.111Z,2.28
2022-11-30T22:06:30.061Z,2.70
2022-11-30T22:09:03.102Z,3.00
2022-11-30T22:11:30.779Z,3.50
2022-11-30T22:13:57.408Z,3.55
2022-11-30T22:16:25.230Z,3.00
2022-11-30T22:18:53.718Z,2.80
2022-11-30T22:21:23.661Z,2.10
2022-11-30T22:23:58.359Z,1.88
2022-11-30T22:26:26.382Z,2.45
2022-11-30T22:29:17.532Z,2.53
2022-11-30T22:31:46.481Z,2.03
2022-11-30T22:34:14.051Z,2.00
2022-11-30T22:36:42.881Z,2.55
2022-11-30T22:39:15.291Z,2.55
2022-11-30T22:41:44.937Z,2.05
2022-11-30T22:44:16.100Z,2.20
2022-11-30T22:46:46.342Z,2.13
2022-11-30T22:49:20.180Z,2.35
2022-11-30T22:51:47.402Z,2.10
2022-11-30T22:54:14.092Z,1.80
2022-11-30T22:56:41.619Z,2.25
2022-11-30T22:59:11.565Z,1.90
2022-11-30T23:01:43.338Z,1.88
2022-11-30T23:04:16.099Z,1.75
2022-11-30T23:06:44.128Z,2.47
2022-11-30T23:09:13.402Z,1.73
2022-11-30T23:11:40.454Z,1.50
2022-11-30T23:14:08.280Z,1.55
2022-11-30T23:16:36.727Z,1.65
2022-11-30T23:19:05.153Z,1.70
2022-11-30T23:21:44.713Z,1.40
2022-11-30T23:24:17.527Z,1.60
2022-11-30T23:26:44.641Z,1.50
2022-11-30T23:29:13.315Z,1.30
2022-11-30T23:31:41.474Z,1.60
2022-11-30T23:34:11.960Z,1.70
2022-11-30T23:36:38.753Z,1.90
2022-11-30T23:39:08.860Z,1.83
2022-11-30T23:41:35.940Z,1.83
2022-11-30T23:44:03.329Z,2.00
2022-11-30T23:46:30.901Z,2.08
2022-11-30T23:48:57.789Z,2.00
2022-11-30T23:51:25.115Z,1.98
2022-11-30T23:53:51.953Z,1.70
2022-11-30T23:56:20.349Z,1.80
2022-11-30T23:58:47.299Z,1.90
